sensor_id;sensor_type;location;lat;lon;timestamp;P1;durP1;ratioP1;P2;durP2;ratioP2
20619;SDS011;10469;42.720;23.252;2023-07-22T00:00:09;10.55;;;5.65;;
20619;SDS011;10469;42.720;23.252;2023-07-22T00:02:40;11.07;;;5.80;;
20619;SDS011;10469;42.720;23.252;2023-07-22T00:05:09;14.60;;;6.20;;
20619;SDS011;10469;42.720;23.252;2023-07-22T00:07:37;11.10;;;6.10;;
20619;SDS011;10469;42.720;23.252;2023-07-22T00:10:05;10.02;;;5.38;;
20619;SDS011;10469;42.720;23.252;2023-07-22T00:12:33;12.43;;;5.70;;
20619;SDS011;10469;42.720;23.252;2023-07-22T00:14:59;13.95;;;5.93;;
20619;SDS011;10469;42.720;23.252;2023-07-22T00:17:25;11.43;;;6.28;;
20619;SDS011;10469;42.720;23.252;2023-07-22T00:19:50;12.05;;;6.25;;
20619;SDS011;10469;42.720;23.252;2023-07-22T00:22:16;14.07;;;5.90;;
20619;SDS011;10469;42.720;23.252;2023-07-22T00:24:42;13.68;;;5.93;;
20619;SDS011;10469;42.720;23.252;2023-07-22T00:27:07;12.48;;;5.85;;
20619;SDS011;10469;42.720;23.252;2023-07-22T00:29:34;9.88;;;5.50;;
20619;SDS011;10469;42.720;23.252;2023-07-22T00:32:00;14.85;;;6.50;;
20619;SDS011;10469;42.720;23.252;2023-07-22T00:34:25;16.50;;;6.43;;
20619;SDS011;10469;42.720;23.252;2023-07-22T00:36:51;12.43;;;5.45;;
20619;SDS011;10469;42.720;23.252;2023-07-22T00:39:17;17.85;;;6.38;;
20619;SDS011;10469;42.720;23.252;2023-07-22T00:41:43;12.75;;;6.00;;
20619;SDS011;10469;42.720;23.252;2023-07-22T00:44:09;12.45;;;6.20;;
20619;SDS011;10469;42.720;23.252;2023-07-22T00:46:36;9.77;;;6.00;;
20619;SDS011;10469;42.720;23.252;2023-07-22T00:49:02;12.10;;;5.63;;
20619;SDS011;10469;42.720;23.252;2023-07-22T00:51:28;10.45;;;5.60;;
20619;SDS011;10469;42.720;23.252;2023-07-22T00:53:53;19.52;;;5.72;;
20619;SDS011;10469;42.720;23.252;2023-07-22T00:56:19;17.52;;;5.93;;
20619;SDS011;10469;42.720;23.252;2023-07-22T00:58:45;7.43;;;5.28;;
20619;SDS011;10469;42.720;23.252;2023-07-22T01:01:10;13.05;;;5.38;;
20619;SDS011;10469;42.720;23.252;2023-07-22T01:03:36;11.85;;;6.00;;
20619;SDS011;10469;42.720;23.252;2023-07-22T01:06:01;11.70;;;6.35;;
20619;SDS011;10469;42.720;23.252;2023-07-22T01:08:27;15.68;;;6.28;;
20619;SDS011;10469;42.720;23.252;2023-07-22T01:10:53;11.38;;;5.93;;
20619;SDS011;10469;42.720;23.252;2023-07-22T01:13:19;18.65;;;5.78;;
20619;SDS011;10469;42.720;23.252;2023-07-22T01:15:45;10.60;;;5.47;;
20619;SDS011;10469;42.720;23.252;2023-07-22T01:18:11;11.20;;;6.07;;
20619;SDS011;10469;42.720;23.252;2023-07-22T01:20:36;13.98;;;6.20;;
20619;SDS011;10469;42.720;23.252;2023-07-22T01:23:03;15.00;;;5.68;;
20619;SDS011;10469;42.720;23.252;2023-07-22T01:25:29;13.98;;;5.72;;
20619;SDS011;10469;42.720;23.252;2023-07-22T01:27:55;16.50;;;6.15;;
20619;SDS011;10469;42.720;23.252;2023-07-22T01:30:20;9.75;;;5.78;;
20619;SDS011;10469;42.720;23.252;2023-07-22T01:32:46;19.05;;;6.53;;
20619;SDS011;10469;42.720;23.252;2023-07-22T01:35:12;14.25;;;6.18;;
20619;SDS011;10469;42.720;23.252;2023-07-22T01:37:37;11.38;;;6.47;;
20619;SDS011;10469;42.720;23.252;2023-07-22T01:40:03;11.27;;;5.75;;
20619;SDS011;10469;42.720;23.252;2023-07-22T01:42:38;13.00;;;5.82;;
20619;SDS011;10469;42.720;23.252;2023-07-22T01:45:05;16.88;;;6.00;;
20619;SDS011;10469;42.720;23.252;2023-07-22T01:47:33;12.65;;;6.15;;
20619;SDS011;10469;42.720;23.252;2023-07-22T01:50:00;14.70;;;5.95;;
20619;SDS011;10469;42.720;23.252;2023-07-22T01:52:25;9.43;;;5.70;;
20619;SDS011;10469;42.720;23.252;2023-07-22T01:54:51;13.90;;;5.28;;
20619;SDS011;10469;42.720;23.252;2023-07-22T01:57:16;12.15;;;6.55;;
20619;SDS011;10469;42.720;23.252;2023-07-22T01:59:41;12.48;;;5.85;;
20619;SDS011;10469;42.720;23.252;2023-07-22T02:02:07;16.30;;;6.47;;
20619;SDS011;10469;42.720;23.252;2023-07-22T02:04:32;14.52;;;5.88;;
20619;SDS011;10469;42.720;23.252;2023-07-22T02:06:58;7.50;;;5.03;;
20619;SDS011;10469;42.720;23.252;2023-07-22T02:09:23;17.05;;;5.93;;
20619;SDS011;10469;42.720;23.252;2023-07-22T02:11:49;8.75;;;5.63;;
20619;SDS011;10469;42.720;23.252;2023-07-22T02:14:14;17.20;;;6.22;;
20619;SDS011;10469;42.720;23.252;2023-07-22T02:16:40;10.88;;;6.03;;
20619;SDS011;10469;42.720;23.252;2023-07-22T02:19:05;13.70;;;5.93;;
20619;SDS011;10469;42.720;23.252;2023-07-22T02:21:30;19.90;;;6.28;;
20619;SDS011;10469;42.720;23.252;2023-07-22T02:23:56;11.45;;;6.53;;
20619;SDS011;10469;42.720;23.252;2023-07-22T02:26:21;14.50;;;6.05;;
20619;SDS011;10469;42.720;23.252;2023-07-22T02:28:47;13.73;;;6.50;;
20619;SDS011;10469;42.720;23.252;2023-07-22T02:31:13;11.18;;;5.95;;
20619;SDS011;10469;42.720;23.252;2023-07-22T02:33:38;13.95;;;5.95;;
20619;SDS011;10469;42.720;23.252;2023-07-22T02:36:04;14.43;;;5.53;;
20619;SDS011;10469;42.720;23.252;2023-07-22T02:38:30;11.60;;;6.10;;
20619;SDS011;10469;42.720;23.252;2023-07-22T02:41:00;14.98;;;6.45;;
20619;SDS011;10469;42.720;23.252;2023-07-22T02:43:27;13.00;;;6.00;;
20619;SDS011;10469;42.720;23.252;2023-07-22T02:45:53;14.38;;;6.43;;
20619;SDS011;10469;42.720;23.252;2023-07-22T02:48:18;9.85;;;6.55;;
20619;SDS011;10469;42.720;23.252;2023-07-22T02:50:44;10.43;;;6.15;;
20619;SDS011;10469;42.720;23.252;2023-07-22T02:53:09;10.63;;;6.40;;
20619;SDS011;10469;42.720;23.252;2023-07-22T02:55:35;13.45;;;6.50;;
20619;SDS011;10469;42.720;23.252;2023-07-22T02:58:00;15.05;;;6.47;;
20619;SDS011;10469;42.720;23.252;2023-07-22T03:00:25;12.55;;;6.45;;
20619;SDS011;10469;42.720;23.252;2023-07-22T03:02:55;11.85;;;5.78;;
20619;SDS011;10469;42.720;23.252;2023-07-22T03:05:27;14.70;;;6.35;;
20619;SDS011;10469;42.720;23.252;2023-07-22T03:07:54;10.85;;;6.47;;
20619;SDS011;10469;42.720;23.252;2023-07-22T03:10:20;14.45;;;5.82;;
20619;SDS011;10469;42.720;23.252;2023-07-22T03:12:45;10.10;;;6.18;;
20619;SDS011;10469;42.720;23.252;2023-07-22T03:15:10;12.75;;;6.15;;
20619;SDS011;10469;42.720;23.252;2023-07-22T03:17:38;14.45;;;6.18;;
20619;SDS011;10469;42.720;23.252;2023-07-22T03:20:04;13.52;;;6.57;;
20619;SDS011;10469;42.720;23.252;2023-07-22T03:22:42;15.00;;;5.75;;
20619;SDS011;10469;42.720;23.252;2023-07-22T03:25:08;18.77;;;6.97;;
20619;SDS011;10469;42.720;23.252;2023-07-22T03:27:35;12.50;;;5.88;;
20619;SDS011;10469;42.720;23.252;2023-07-22T03:30:02;11.98;;;6.32;;
20619;SDS011;10469;42.720;23.252;2023-07-22T03:32:28;17.20;;;6.15;;
20619;SDS011;10469;42.720;23.252;2023-07-22T03:34:54;15.50;;;6.10;;
20619;SDS011;10469;42.720;23.252;2023-07-22T03:37:19;13.68;;;6.28;;
20619;SDS011;10469;42.720;23.252;2023-07-22T03:39:45;14.82;;;6.95;;
20619;SDS011;10469;42.720;23.252;2023-07-22T03:42:11;11.23;;;6.40;;
20619;SDS011;10469;42.720;23.252;2023-07-22T03:44:36;14.57;;;6.85;;
20619;SDS011;10469;42.720;23.252;2023-07-22T03:47:02;31.77;;;7.22;;
20619;SDS011;10469;42.720;23.252;2023-07-22T03:49:28;10.48;;;6.47;;
20619;SDS011;10469;42.720;23.252;2023-07-22T03:51:53;15.35;;;6.47;;
20619;SDS011;10469;42.720;23.252;2023-07-22T03:54:19;14.55;;;6.32;;
20619;SDS011;10469;42.720;23.252;2023-07-22T03:56:44;12.88;;;6.18;;
20619;SDS011;10469;42.720;23.252;2023-07-22T03:59:09;13.23;;;6.20;;
20619;SDS011;10469;42.720;23.252;2023-07-22T04:01:35;11.13;;;6.50;;
20619;SDS011;10469;42.720;23.252;2023-07-22T04:04:00;12.48;;;7.28;;
20619;SDS011;10469;42.720;23.252;2023-07-22T04:06:26;14.45;;;7.55;;
20619;SDS011;10469;42.720;23.252;2023-07-22T04:08:51;11.13;;;6.13;;
20619;SDS011;10469;42.720;23.252;2023-07-22T04:11:17;15.88;;;6.40;;
20619;SDS011;10469;42.720;23.252;2023-07-22T04:13:42;13.38;;;6.88;;
20619;SDS011;10469;42.720;23.252;2023-07-22T04:16:08;9.15;;;5.82;;
20619;SDS011;10469;42.720;23.252;2023-07-22T04:18:33;11.43;;;5.82;;
20619;SDS011;10469;42.720;23.252;2023-07-22T04:20:59;10.13;;;6.55;;
20619;SDS011;10469;42.720;23.252;2023-07-22T04:23:25;19.52;;;6.72;;
20619;SDS011;10469;42.720;23.252;2023-07-22T04:25:51;14.82;;;6.13;;
20619;SDS011;10469;42.720;23.252;2023-07-22T04:28:17;12.57;;;6.30;;
20619;SDS011;10469;42.720;23.252;2023-07-22T04:30:42;12.93;;;6.35;;
20619;SDS011;10469;42.720;23.252;2023-07-22T04:33:08;11.13;;;6.03;;
20619;SDS011;10469;42.720;23.252;2023-07-22T04:35:37;9.98;;;6.03;;
20619;SDS011;10469;42.720;23.252;2023-07-22T04:38:03;13.18;;;6.35;;
20619;SDS011;10469;42.720;23.252;2023-07-22T04:40:29;13.13;;;6.18;;
20619;SDS011;10469;42.720;23.252;2023-07-22T04:42:55;11.00;;;6.38;;
20619;SDS011;10469;42.720;23.252;2023-07-22T04:45:22;10.98;;;6.60;;
20619;SDS011;10469;42.720;23.252;2023-07-22T04:47:49;14.05;;;6.28;;
20619;SDS011;10469;42.720;23.252;2023-07-22T04:50:15;11.90;;;5.80;;
20619;SDS011;10469;42.720;23.252;2023-07-22T04:52:42;14.65;;;6.32;;
20619;SDS011;10469;42.720;23.252;2023-07-22T04:55:09;11.90;;;6.22;;
20619;SDS011;10469;42.720;23.252;2023-07-22T04:57:35;12.57;;;6.57;;
20619;SDS011;10469;42.720;23.252;2023-07-22T05:00:04;11.07;;;6.57;;
20619;SDS011;10469;42.720;23.252;2023-07-22T05:02:30;13.40;;;6.68;;
20619;SDS011;10469;42.720;23.252;2023-07-22T05:04:57;16.63;;;6.72;;
20619;SDS011;10469;42.720;23.252;2023-07-22T05:07:23;15.60;;;6.97;;
20619;SDS011;10469;42.720;23.252;2023-07-22T05:09:49;13.95;;;6.63;;
20619;SDS011;10469;42.720;23.252;2023-07-22T05:12:15;22.05;;;8.13;;
20619;SDS011;10469;42.720;23.252;2023-07-22T05:14:40;13.20;;;6.75;;
20619;SDS011;10469;42.720;23.252;2023-07-22T05:17:06;13.60;;;7.20;;
20619;SDS011;10469;42.720;23.252;2023-07-22T05:19:31;12.73;;;7.03;;
20619;SDS011;10469;42.720;23.252;2023-07-22T05:21:57;12.95;;;7.50;;
20619;SDS011;10469;42.720;23.252;2023-07-22T05:24:22;19.13;;;7.10;;
20619;SDS011;10469;42.720;23.252;2023-07-22T05:26:48;16.75;;;6.85;;
20619;SDS011;10469;42.720;23.252;2023-07-22T05:29:13;13.43;;;7.30;;
20619;SDS011;10469;42.720;23.252;2023-07-22T05:31:39;25.42;;;7.63;;
20619;SDS011;10469;42.720;23.252;2023-07-22T05:34:04;17.40;;;8.32;;
20619;SDS011;10469;42.720;23.252;2023-07-22T05:36:30;16.88;;;7.28;;
20619;SDS011;10469;42.720;23.252;2023-07-22T05:38:56;11.75;;;6.93;;
20619;SDS011;10469;42.720;23.252;2023-07-22T05:41:22;15.60;;;6.97;;
20619;SDS011;10469;42.720;23.252;2023-07-22T05:43:48;21.00;;;7.18;;
20619;SDS011;10469;42.720;23.252;2023-07-22T05:46:13;17.55;;;7.50;;
20619;SDS011;10469;42.720;23.252;2023-07-22T05:48:39;22.25;;;8.43;;
20619;SDS011;10469;42.720;23.252;2023-07-22T05:51:04;10.50;;;7.35;;
20619;SDS011;10469;42.720;23.252;2023-07-22T05:53:31;26.60;;;8.82;;
20619;SDS011;10469;42.720;23.252;2023-07-22T05:55:57;12.95;;;6.80;;
20619;SDS011;10469;42.720;23.252;2023-07-22T05:58:23;17.88;;;7.22;;
20619;SDS011;10469;42.720;23.252;2023-07-22T06:00:48;17.00;;;8.57;;
20619;SDS011;10469;42.720;23.252;2023-07-22T06:03:14;16.83;;;7.18;;
20619;SDS011;10469;42.720;23.252;2023-07-22T06:05:40;17.30;;;7.85;;
20619;SDS011;10469;42.720;23.252;2023-07-22T06:08:05;17.92;;;7.97;;
20619;SDS011;10469;42.720;23.252;2023-07-22T06:10:31;12.82;;;8.20;;
20619;SDS011;10469;42.720;23.252;2023-07-22T06:12:57;21.17;;;9.30;;
20619;SDS011;10469;42.720;23.252;2023-07-22T06:15:22;28.08;;;8.55;;
20619;SDS011;10469;42.720;23.252;2023-07-22T06:17:48;15.48;;;7.63;;
20619;SDS011;10469;42.720;23.252;2023-07-22T06:20:13;15.55;;;7.88;;
20619;SDS011;10469;42.720;23.252;2023-07-22T06:22:39;11.73;;;6.82;;
20619;SDS011;10469;42.720;23.252;2023-07-22T06:25:05;16.42;;;7.15;;
20619;SDS011;10469;42.720;23.252;2023-07-22T06:27:31;10.50;;;6.65;;
20619;SDS011;10469;42.720;23.252;2023-07-22T06:29:57;11.52;;;6.90;;
20619;SDS011;10469;42.720;23.252;2023-07-22T06:32:23;18.70;;;7.70;;
20619;SDS011;10469;42.720;23.252;2023-07-22T06:34:48;15.52;;;7.55;;
20619;SDS011;10469;42.720;23.252;2023-07-22T06:37:15;12.82;;;7.00;;
20619;SDS011;10469;42.720;23.252;2023-07-22T06:39:41;18.42;;;7.47;;
20619;SDS011;10469;42.720;23.252;2023-07-22T06:42:08;17.80;;;7.72;;
20619;SDS011;10469;42.720;23.252;2023-07-22T06:44:33;12.20;;;7.05;;
20619;SDS011;10469;42.720;23.252;2023-07-22T06:46:58;17.75;;;7.07;;
20619;SDS011;10469;42.720;23.252;2023-07-22T06:49:24;15.90;;;6.50;;
20619;SDS011;10469;42.720;23.252;2023-07-22T06:51:49;13.57;;;6.78;;
20619;SDS011;10469;42.720;23.252;2023-07-22T06:54:15;20.67;;;7.70;;
20619;SDS011;10469;42.720;23.252;2023-07-22T06:56:40;11.82;;;6.57;;
20619;SDS011;10469;42.720;23.252;2023-07-22T06:59:06;11.23;;;6.45;;
20619;SDS011;10469;42.720;23.252;2023-07-22T07:01:31;12.15;;;6.72;;
20619;SDS011;10469;42.720;23.252;2023-07-22T07:03:57;11.07;;;6.90;;
20619;SDS011;10469;42.720;23.252;2023-07-22T07:06:22;9.80;;;5.93;;
20619;SDS011;10469;42.720;23.252;2023-07-22T07:12:06;16.25;;;6.68;;
20619;SDS011;10469;42.720;23.252;2023-07-22T07:14:37;9.82;;;5.57;;
20619;SDS011;10469;42.720;23.252;2023-07-22T07:17:10;14.60;;;6.30;;
20619;SDS011;10469;42.720;23.252;2023-07-22T07:19:42;20.05;;;7.07;;
20619;SDS011;10469;42.720;23.252;2023-07-22T07:22:24;10.70;;;6.38;;
20619;SDS011;10469;42.720;23.252;2023-07-22T07:25:30;23.85;;;7.20;;
20619;SDS011;10469;42.720;23.252;2023-07-22T07:27:56;18.73;;;7.22;;
20619;SDS011;10469;42.720;23.252;2023-07-22T07:30:22;12.48;;;7.03;;
20619;SDS011;10469;42.720;23.252;2023-07-22T07:32:48;14.48;;;7.28;;
20619;SDS011;10469;42.720;23.252;2023-07-22T07:35:13;22.13;;;7.30;;
20619;SDS011;10469;42.720;23.252;2023-07-22T07:37:40;16.90;;;6.93;;
20619;SDS011;10469;42.720;23.252;2023-07-22T07:40:06;14.98;;;7.25;;
20619;SDS011;10469;42.720;23.252;2023-07-22T07:42:32;15.63;;;7.22;;
20619;SDS011;10469;42.720;23.252;2023-07-22T07:44:57;13.95;;;7.75;;
20619;SDS011;10469;42.720;23.252;2023-07-22T07:47:23;13.15;;;7.05;;
20619;SDS011;10469;42.720;23.252;2023-07-22T07:49:48;12.60;;;7.70;;
20619;SDS011;10469;42.720;23.252;2023-07-22T07:52:14;14.50;;;7.70;;
20619;SDS011;10469;42.720;23.252;2023-07-22T07:54:39;17.08;;;8.10;;
20619;SDS011;10469;42.720;23.252;2023-07-22T07:57:05;12.98;;;7.28;;
20619;SDS011;10469;42.720;23.252;2023-07-22T07:59:31;17.98;;;7.53;;
20619;SDS011;10469;42.720;23.252;2023-07-22T08:01:56;14.73;;;7.72;;
20619;SDS011;10469;42.720;23.252;2023-07-22T08:04:22;18.05;;;8.27;;
20619;SDS011;10469;42.720;23.252;2023-07-22T08:06:48;16.67;;;7.95;;
20619;SDS011;10469;42.720;23.252;2023-07-22T08:09:14;13.55;;;7.90;;
20619;SDS011;10469;42.720;23.252;2023-07-22T08:11:44;17.80;;;8.98;;
20619;SDS011;10469;42.720;23.252;2023-07-22T08:14:10;19.88;;;8.20;;
20619;SDS011;10469;42.720;23.252;2023-07-22T08:16:35;17.02;;;8.07;;
20619;SDS011;10469;42.720;23.252;2023-07-22T08:19:01;18.50;;;8.40;;
20619;SDS011;10469;42.720;23.252;2023-07-22T08:21:26;16.85;;;8.05;;
20619;SDS011;10469;42.720;23.252;2023-07-22T08:23:52;16.02;;;7.70;;
20619;SDS011;10469;42.720;23.252;2023-07-22T08:26:17;20.05;;;8.38;;
20619;SDS011;10469;42.720;23.252;2023-07-22T08:28:46;16.20;;;8.55;;
20619;SDS011;10469;42.720;23.252;2023-07-22T08:31:12;16.80;;;8.95;;
20619;SDS011;10469;42.720;23.252;2023-07-22T08:33:37;18.67;;;9.48;;
20619;SDS011;10469;42.720;23.252;2023-07-22T08:36:03;14.30;;;8.88;;
20619;SDS011;10469;42.720;23.252;2023-07-22T08:38:29;23.02;;;9.30;;
20619;SDS011;10469;42.720;23.252;2023-07-22T08:40:55;21.45;;;9.05;;
20619;SDS011;10469;42.720;23.252;2023-07-22T08:43:21;14.88;;;8.50;;
20619;SDS011;10469;42.720;23.252;2023-07-22T08:45:48;16.48;;;8.27;;
20619;SDS011;10469;42.720;23.252;2023-07-22T08:48:17;18.67;;;8.25;;
20619;SDS011;10469;42.720;23.252;2023-07-22T08:50:57;20.30;;;8.57;;
20619;SDS011;10469;42.720;23.252;2023-07-22T08:53:25;16.23;;;8.30;;
20619;SDS011;10469;42.720;23.252;2023-07-22T08:55:51;15.18;;;8.48;;
20619;SDS011;10469;42.720;23.252;2023-07-22T08:58:18;23.42;;;9.25;;
20619;SDS011;10469;42.720;23.252;2023-07-22T09:00:44;22.30;;;8.65;;
20619;SDS011;10469;42.720;23.252;2023-07-22T09:03:13;27.98;;;9.18;;
20619;SDS011;10469;42.720;23.252;2023-07-22T09:05:39;17.80;;;8.43;;
20619;SDS011;10469;42.720;23.252;2023-07-22T09:08:06;22.38;;;8.45;;
20619;SDS011;10469;42.720;23.252;2023-07-22T09:10:33;21.30;;;8.38;;
20619;SDS011;10469;42.720;23.252;2023-07-22T09:12:59;17.83;;;8.48;;
20619;SDS011;10469;42.720;23.252;2023-07-22T09:15:25;23.17;;;9.20;;
20619;SDS011;10469;42.720;23.252;2023-07-22T09:17:51;17.27;;;8.43;;
20619;SDS011;10469;42.720;23.252;2023-07-22T09:20:17;16.85;;;8.70;;
20619;SDS011;10469;42.720;23.252;2023-07-22T09:22:45;22.20;;;8.52;;
20619;SDS011;10469;42.720;23.252;2023-07-22T09:25:12;27.15;;;8.98;;
20619;SDS011;10469;42.720;23.252;2023-07-22T09:27:42;22.00;;;8.27;;
20619;SDS011;10469;42.720;23.252;2023-07-22T09:30:24;13.50;;;7.03;;
20619;SDS011;10469;42.720;23.252;2023-07-22T09:32:52;21.85;;;8.50;;
20619;SDS011;10469;42.720;23.252;2023-07-22T09:35:19;20.27;;;9.05;;
20619;SDS011;10469;42.720;23.252;2023-07-22T09:37:45;24.15;;;8.48;;
20619;SDS011;10469;42.720;23.252;2023-07-22T09:40:18;26.35;;;8.68;;
20619;SDS011;10469;42.720;23.252;2023-07-22T09:42:48;30.83;;;8.50;;
20619;SDS011;10469;42.720;23.252;2023-07-22T09:45:16;19.13;;;7.75;;
20619;SDS011;10469;42.720;23.252;2023-07-22T09:47:46;15.85;;;7.18;;
20619;SDS011;10469;42.720;23.252;2023-07-22T09:50:14;28.00;;;6.95;;
20619;SDS011;10469;42.720;23.252;2023-07-22T09:52:44;21.02;;;7.30;;
20619;SDS011;10469;42.720;23.252;2023-07-22T09:55:29;26.25;;;6.50;;
20619;SDS011;10469;42.720;23.252;2023-07-22T09:57:56;26.17;;;7.00;;
20619;SDS011;10469;42.720;23.252;2023-07-22T10:00:24;32.53;;;10.50;;
20619;SDS011;10469;42.720;23.252;2023-07-22T10:02:52;24.63;;;8.10;;
20619;SDS011;10469;42.720;23.252;2023-07-22T10:05:22;19.65;;;7.10;;
20619;SDS011;10469;42.720;23.252;2023-07-22T10:07:54;24.17;;;6.45;;
20619;SDS011;10469;42.720;23.252;2023-07-22T10:10:22;22.00;;;7.10;;
20619;SDS011;10469;42.720;23.252;2023-07-22T10:12:50;18.15;;;6.22;;
20619;SDS011;10469;42.720;23.252;2023-07-22T10:15:16;22.23;;;7.40;;
20619;SDS011;10469;42.720;23.252;2023-07-22T10:17:45;29.20;;;6.93;;
20619;SDS011;10469;42.720;23.252;2023-07-22T10:20:12;33.40;;;6.90;;
20619;SDS011;10469;42.720;23.252;2023-07-22T10:22:44;23.38;;;7.20;;
20619;SDS011;10469;42.720;23.252;2023-07-22T10:25:20;22.85;;;7.07;;
20619;SDS011;10469;42.720;23.252;2023-07-22T10:27:47;29.73;;;7.13;;
20619;SDS011;10469;42.720;23.252;2023-07-22T10:30:15;25.55;;;6.43;;
20619;SDS011;10469;42.720;23.252;2023-07-22T10:32:43;18.65;;;6.40;;
20619;SDS011;10469;42.720;23.252;2023-07-22T10:35:11;25.52;;;6.57;;
20619;SDS011;10469;42.720;23.252;2023-07-22T10:37:55;32.90;;;7.10;;
20619;SDS011;10469;42.720;23.252;2023-07-22T10:40:31;24.15;;;6.95;;
20619;SDS011;10469;42.720;23.252;2023-07-22T10:42:57;30.00;;;6.63;;
20619;SDS011;10469;42.720;23.252;2023-07-22T10:45:28;33.15;;;7.05;;
20619;SDS011;10469;42.720;23.252;2023-07-22T10:48:58;28.70;;;7.28;;
20619;SDS011;10469;42.720;23.252;2023-07-22T10:51:05;24.00;;;7.82;;
20619;SDS011;10469;42.720;23.252;2023-07-22T10:53:47;23.50;;;6.22;;
20619;SDS011;10469;42.720;23.252;2023-07-22T10:56:18;33.10;;;6.68;;
20619;SDS011;10469;42.720;23.252;2023-07-22T11:11:53;26.85;;;6.30;;
20619;SDS011;10469;42.720;23.252;2023-07-22T11:14:23;33.08;;;6.72;;
20619;SDS011;10469;42.720;23.252;2023-07-22T11:16:50;19.40;;;6.15;;
20619;SDS011;10469;42.720;23.252;2023-07-22T11:19:16;22.90;;;6.80;;
20619;SDS011;10469;42.720;23.252;2023-07-22T11:21:43;35.88;;;7.28;;
20619;SDS011;10469;42.720;23.252;2023-07-22T11:24:10;26.17;;;6.78;;
20619;SDS011;10469;42.720;23.252;2023-07-22T11:26:36;28.45;;;6.85;;
20619;SDS011;10469;42.720;23.252;2023-07-22T11:29:03;32.20;;;6.43;;
20619;SDS011;10469;42.720;23.252;2023-07-22T11:31:33;29.65;;;6.35;;
20619;SDS011;10469;42.720;23.252;2023-07-22T11:34:02;27.25;;;6.70;;
20619;SDS011;10469;42.720;23.252;2023-07-22T11:36:30;27.00;;;6.03;;
20619;SDS011;10469;42.720;23.252;2023-07-22T11:39:03;28.10;;;6.35;;
20619;SDS011;10469;42.720;23.252;2023-07-22T11:41:29;29.98;;;6.50;;
20619;SDS011;10469;42.720;23.252;2023-07-22T11:43:59;25.38;;;6.43;;
20619;SDS011;10469;42.720;23.252;2023-07-22T11:46:26;21.67;;;6.10;;
20619;SDS011;10469;42.720;23.252;2023-07-22T11:48:52;31.05;;;7.53;;
20619;SDS011;10469;42.720;23.252;2023-07-22T11:51:22;26.83;;;7.05;;
20619;SDS011;10469;42.720;23.252;2023-07-22T11:53:50;29.50;;;6.80;;
20619;SDS011;10469;42.720;23.252;2023-07-22T11:58:52;22.77;;;6.25;;
20619;SDS011;10469;42.720;23.252;2023-07-22T12:01:19;26.05;;;5.97;;
20619;SDS011;10469;42.720;23.252;2023-07-22T12:03:45;29.98;;;7.18;;
20619;SDS011;10469;42.720;23.252;2023-07-22T12:06:11;34.30;;;6.55;;
20619;SDS011;10469;42.720;23.252;2023-07-22T12:08:48;35.08;;;6.78;;
20619;SDS011;10469;42.720;23.252;2023-07-22T12:11:24;27.30;;;6.32;;
20619;SDS011;10469;42.720;23.252;2023-07-22T12:14:09;23.65;;;6.65;;
20619;SDS011;10469;42.720;23.252;2023-07-22T12:16:36;30.92;;;6.97;;
20619;SDS011;10469;42.720;23.252;2023-07-22T12:19:03;24.10;;;6.55;;
20619;SDS011;10469;42.720;23.252;2023-07-22T12:21:30;37.40;;;6.68;;
20619;SDS011;10469;42.720;23.252;2023-07-22T12:23:56;20.42;;;6.15;;
20619;SDS011;10469;42.720;23.252;2023-07-22T12:26:22;26.85;;;6.25;;
20619;SDS011;10469;42.720;23.252;2023-07-22T12:28:47;31.52;;;6.13;;
20619;SDS011;10469;42.720;23.252;2023-07-22T12:31:13;34.35;;;6.93;;
20619;SDS011;10469;42.720;23.252;2023-07-22T12:33:38;32.92;;;6.57;;
20619;SDS011;10469;42.720;23.252;2023-07-22T12:36:04;34.03;;;7.18;;
20619;SDS011;10469;42.720;23.252;2023-07-22T12:38:30;33.17;;;6.85;;
20619;SDS011;10469;42.720;23.252;2023-07-22T12:40:56;20.75;;;6.05;;
20619;SDS011;10469;42.720;23.252;2023-07-22T12:43:21;27.92;;;6.00;;
20619;SDS011;10469;42.720;23.252;2023-07-22T12:45:47;29.98;;;6.28;;
20619;SDS011;10469;42.720;23.252;2023-07-22T12:48:13;26.75;;;5.78;;
20619;SDS011;10469;42.720;23.252;2023-07-22T12:50:39;36.97;;;5.95;;
20619;SDS011;10469;42.720;23.252;2023-07-22T12:53:04;36.38;;;6.88;;
20619;SDS011;10469;42.720;23.252;2023-07-22T12:55:30;35.40;;;7.03;;
20619;SDS011;10469;42.720;23.252;2023-07-22T12:57:56;23.35;;;6.57;;
20619;SDS011;10469;42.720;23.252;2023-07-22T13:00:21;27.50;;;6.30;;
20619;SDS011;10469;42.720;23.252;2023-07-22T13:02:47;29.85;;;6.63;;
20619;SDS011;10469;42.720;23.252;2023-07-22T13:05:13;28.83;;;6.18;;
20619;SDS011;10469;42.720;23.252;2023-07-22T13:07:39;27.23;;;7.00;;
20619;SDS011;10469;42.720;23.252;2023-07-22T13:10:05;24.27;;;6.07;;
20619;SDS011;10469;42.720;23.252;2023-07-22T13:12:39;29.15;;;6.85;;
20619;SDS011;10469;42.720;23.252;2023-07-22T13:15:04;30.15;;;6.65;;
20619;SDS011;10469;42.720;23.252;2023-07-22T13:17:31;29.83;;;6.15;;
20619;SDS011;10469;42.720;23.252;2023-07-22T13:19:56;29.77;;;6.45;;
20619;SDS011;10469;42.720;23.252;2023-07-22T13:22:22;34.40;;;6.93;;
20619;SDS011;10469;42.720;23.252;2023-07-22T13:24:48;36.35;;;6.75;;
20619;SDS011;10469;42.720;23.252;2023-07-22T13:27:13;27.50;;;6.38;;
20619;SDS011;10469;42.720;23.252;2023-07-22T13:29:38;29.40;;;6.97;;
20619;SDS011;10469;42.720;23.252;2023-07-22T13:32:04;33.60;;;6.70;;
20619;SDS011;10469;42.720;23.252;2023-07-22T13:34:31;32.13;;;7.22;;
20619;SDS011;10469;42.720;23.252;2023-07-22T13:36:56;44.90;;;6.93;;
20619;SDS011;10469;42.720;23.252;2023-07-22T13:39:22;33.38;;;7.15;;
20619;SDS011;10469;42.720;23.252;2023-07-22T13:41:48;33.65;;;7.38;;
20619;SDS011;10469;42.720;23.252;2023-07-22T13:44:14;36.33;;;7.15;;
20619;SDS011;10469;42.720;23.252;2023-07-22T13:46:39;41.40;;;8.55;;
20619;SDS011;10469;42.720;23.252;2023-07-22T13:49:05;47.60;;;9.10;;
20619;SDS011;10469;42.720;23.252;2023-07-22T13:51:30;35.42;;;7.07;;
20619;SDS011;10469;42.720;23.252;2023-07-22T13:53:56;32.63;;;6.75;;
20619;SDS011;10469;42.720;23.252;2023-07-22T13:56:23;35.30;;;6.60;;
20619;SDS011;10469;42.720;23.252;2023-07-22T13:58:49;32.90;;;6.20;;
20619;SDS011;10469;42.720;23.252;2023-07-22T14:01:18;30.75;;;6.53;;
20619;SDS011;10469;42.720;23.252;2023-07-22T14:03:50;44.42;;;6.93;;
20619;SDS011;10469;42.720;23.252;2023-07-22T14:06:32;45.05;;;7.25;;
20619;SDS011;10469;42.720;23.252;2023-07-22T14:09:05;38.10;;;6.32;;
20619;SDS011;10469;42.720;23.252;2023-07-22T14:11:30;34.45;;;6.53;;
20619;SDS011;10469;42.720;23.252;2023-07-22T14:13:56;26.27;;;5.90;;
20619;SDS011;10469;42.720;23.252;2023-07-22T14:16:21;28.17;;;7.18;;
20619;SDS011;10469;42.720;23.252;2023-07-22T14:18:47;27.98;;;6.47;;
20619;SDS011;10469;42.720;23.252;2023-07-22T14:21:13;27.17;;;5.97;;
20619;SDS011;10469;42.720;23.252;2023-07-22T14:23:39;31.30;;;6.50;;
20619;SDS011;10469;42.720;23.252;2023-07-22T14:26:04;28.60;;;6.78;;
20619;SDS011;10469;42.720;23.252;2023-07-22T14:28:30;34.47;;;6.57;;
20619;SDS011;10469;42.720;23.252;2023-07-22T14:30:55;25.40;;;6.38;;
20619;SDS011;10469;42.720;23.252;2023-07-22T14:33:20;31.77;;;7.25;;
20619;SDS011;10469;42.720;23.252;2023-07-22T14:35:46;33.70;;;6.38;;
20619;SDS011;10469;42.720;23.252;2023-07-22T14:38:11;31.85;;;6.53;;